Romney, Indiana
Current Conditions -  °F | °C
As of 6:54 AM on Monday 20 Oct 2014 (Local Time) from KLAF Reporting Station
Overcast Overcast  
Wind Chill: 51°   Ceiling: 6000
Heat Index: 51°   Visibility: 10mi
Dew Point: 44°   Wind: 9mph
Humidity: 77%   Direction: 220°SW
Pressure: 29.9"   Gusts: NA
Location:  40.25°N, 86.9°W
Report Text: KLAF 201054Z 22008KT 10SM OVC060 11/07 A2990 RMK AO2 SLP124 T01060067
Loading
Personal Weather Stations






























Interactive Weather Map
Tropical Storm Tracking
New forecast layout! Learn more

10-Day Weather Forecast

Advertisements
Track Severe Weather on mobile